sensor_id;sensor_type;location;lat;lon;timestamp;P1;durP1;ratioP1;P2;durP2;ratioP2
30378;SDS011;17168;49.164;9.060;2022-09-09T00:00:53;6.65;;;2.40;;
30378;SDS011;17168;49.164;9.060;2022-09-09T00:03:34;7.13;;;2.28;;
30378;SDS011;17168;49.164;9.060;2022-09-09T00:06:14;8.88;;;2.38;;
30378;SDS011;17168;49.164;9.060;2022-09-09T00:08:56;6.05;;;2.70;;
30378;SDS011;17168;49.164;9.060;2022-09-09T00:11:36;7.70;;;2.55;;
30378;SDS011;17168;49.164;9.060;2022-09-09T00:14:16;3.88;;;2.17;;
30378;SDS011;17168;49.164;9.060;2022-09-09T00:16:52;2.60;;;1.90;;
30378;SDS011;17168;49.164;9.060;2022-09-09T00:19:32;6.55;;;2.22;;
30378;SDS011;17168;49.164;9.060;2022-09-09T00:22:12;4.50;;;2.25;;
30378;SDS011;17168;49.164;9.060;2022-09-09T00:24:49;7.43;;;2.60;;
30378;SDS011;17168;49.164;9.060;2022-09-09T00:27:26;4.20;;;1.85;;
30378;SDS011;17168;49.164;9.060;2022-09-09T00:30:12;5.97;;;2.35;;
30378;SDS011;17168;49.164;9.060;2022-09-09T00:32:47;3.72;;;2.20;;
30378;SDS011;17168;49.164;9.060;2022-09-09T00:35:21;7.35;;;2.38;;
30378;SDS011;17168;49.164;9.060;2022-09-09T00:37:56;8.18;;;2.65;;
30378;SDS011;17168;49.164;9.060;2022-09-09T00:40:34;4.22;;;2.35;;
30378;SDS011;17168;49.164;9.060;2022-09-09T00:46:13;6.40;;;2.45;;
30378;SDS011;17168;49.164;9.060;2022-09-09T00:49:01;5.85;;;2.30;;
30378;SDS011;17168;49.164;9.060;2022-09-09T00:51:41;6.35;;;2.15;;
30378;SDS011;17168;49.164;9.060;2022-09-09T00:54:27;3.53;;;2.00;;
30378;SDS011;17168;49.164;9.060;2022-09-09T00:57:21;4.65;;;2.28;;
30378;SDS011;17168;49.164;9.060;2022-09-09T01:00:15;5.47;;;2.30;;
30378;SDS011;17168;49.164;9.060;2022-09-09T01:02:54;6.75;;;2.33;;
30378;SDS011;17168;49.164;9.060;2022-09-09T01:05:36;5.50;;;2.25;;
30378;SDS011;17168;49.164;9.060;2022-09-09T01:08:18;4.90;;;2.28;;
30378;SDS011;17168;49.164;9.060;2022-09-09T01:11:05;3.53;;;2.30;;
30378;SDS011;17168;49.164;9.060;2022-09-09T01:13:49;6.43;;;2.13;;
30378;SDS011;17168;49.164;9.060;2022-09-09T01:16:26;7.25;;;2.00;;
30378;SDS011;17168;49.164;9.060;2022-09-09T01:19:01;4.95;;;1.90;;
30378;SDS011;17168;49.164;9.060;2022-09-09T01:21:39;4.50;;;2.10;;
30378;SDS011;17168;49.164;9.060;2022-09-09T01:24:20;4.25;;;1.90;;
30378;SDS011;17168;49.164;9.060;2022-09-09T01:26:58;5.95;;;1.80;;
30378;SDS011;17168;49.164;9.060;2022-09-09T01:29:31;4.28;;;2.10;;
30378;SDS011;17168;49.164;9.060;2022-09-09T01:35:12;5.35;;;1.83;;
30378;SDS011;17168;49.164;9.060;2022-09-09T01:37:54;3.60;;;2.08;;
30378;SDS011;17168;49.164;9.060;2022-09-09T01:40:26;4.60;;;2.42;;
30378;SDS011;17168;49.164;9.060;2022-09-09T01:43:00;3.92;;;2.30;;
30378;SDS011;17168;49.164;9.060;2022-09-09T01:45:33;6.18;;;2.30;;
30378;SDS011;17168;49.164;9.060;2022-09-09T01:48:05;6.20;;;2.30;;
30378;SDS011;17168;49.164;9.060;2022-09-09T01:50:37;10.27;;;2.67;;
30378;SDS011;17168;49.164;9.060;2022-09-09T01:53:10;7.38;;;2.35;;
30378;SDS011;17168;49.164;9.060;2022-09-09T01:55:44;7.25;;;2.47;;
30378;SDS011;17168;49.164;9.060;2022-09-09T01:58:31;10.85;;;2.75;;
30378;SDS011;17168;49.164;9.060;2022-09-09T02:01:11;6.07;;;2.40;;
30378;SDS011;17168;49.164;9.060;2022-09-09T02:03:51;4.43;;;1.88;;
30378;SDS011;17168;49.164;9.060;2022-09-09T02:06:26;4.00;;;2.05;;
30378;SDS011;17168;49.164;9.060;2022-09-09T02:09:03;4.10;;;2.03;;
30378;SDS011;17168;49.164;9.060;2022-09-09T02:11:37;3.33;;;1.85;;
30378;SDS011;17168;49.164;9.060;2022-09-09T02:14:11;5.57;;;2.10;;
30378;SDS011;17168;49.164;9.060;2022-09-09T02:16:49;2.83;;;1.65;;
30378;SDS011;17168;49.164;9.060;2022-09-09T02:19:27;4.20;;;1.83;;
30378;SDS011;17168;49.164;9.060;2022-09-09T02:22:04;3.70;;;1.70;;
30378;SDS011;17168;49.164;9.060;2022-09-09T02:24:37;7.75;;;1.48;;
30378;SDS011;17168;49.164;9.060;2022-09-09T02:27:11;7.18;;;1.45;;
30378;SDS011;17168;49.164;9.060;2022-09-09T02:29:46;4.55;;;1.13;;
30378;SDS011;17168;49.164;9.060;2022-09-09T02:32:22;2.25;;;1.20;;
30378;SDS011;17168;49.164;9.060;2022-09-09T02:34:56;5.53;;;1.13;;
30378;SDS011;17168;49.164;9.060;2022-09-09T02:37:34;3.78;;;1.38;;
30378;SDS011;17168;49.164;9.060;2022-09-09T02:40:10;4.00;;;1.30;;
30378;SDS011;17168;49.164;9.060;2022-09-09T02:42:45;3.53;;;1.00;;
30378;SDS011;17168;49.164;9.060;2022-09-09T02:45:23;3.45;;;1.30;;
30378;SDS011;17168;49.164;9.060;2022-09-09T02:47:59;4.03;;;1.17;;
30378;SDS011;17168;49.164;9.060;2022-09-09T02:50:41;2.47;;;0.88;;
30378;SDS011;17168;49.164;9.060;2022-09-09T02:53:22;6.38;;;0.93;;
30378;SDS011;17168;49.164;9.060;2022-09-09T02:56:02;4.72;;;1.15;;
30378;SDS011;17168;49.164;9.060;2022-09-09T02:58:37;4.97;;;1.00;;
30378;SDS011;17168;49.164;9.060;2022-09-09T03:01:12;2.28;;;0.80;;
30378;SDS011;17168;49.164;9.060;2022-09-09T03:03:45;3.78;;;0.80;;
30378;SDS011;17168;49.164;9.060;2022-09-09T03:06:17;2.25;;;0.88;;
30378;SDS011;17168;49.164;9.060;2022-09-09T03:08:49;2.80;;;0.80;;
30378;SDS011;17168;49.164;9.060;2022-09-09T03:11:21;2.45;;;0.57;;
30378;SDS011;17168;49.164;9.060;2022-09-09T03:13:53;4.15;;;0.90;;
30378;SDS011;17168;49.164;9.060;2022-09-09T03:16:28;4.88;;;0.93;;
30378;SDS011;17168;49.164;9.060;2022-09-09T03:19:00;2.50;;;0.85;;
30378;SDS011;17168;49.164;9.060;2022-09-09T03:21:32;4.53;;;1.00;;
30378;SDS011;17168;49.164;9.060;2022-09-09T03:24:04;2.30;;;0.75;;
30378;SDS011;17168;49.164;9.060;2022-09-09T03:29:09;4.43;;;1.02;;
30378;SDS011;17168;49.164;9.060;2022-09-09T03:31:42;1.55;;;0.55;;
30378;SDS011;17168;49.164;9.060;2022-09-09T03:36:46;1.48;;;0.50;;
30378;SDS011;17168;49.164;9.060;2022-09-09T03:39:19;1.95;;;0.70;;
30378;SDS011;17168;49.164;9.060;2022-09-09T03:41:51;3.78;;;0.82;;
30378;SDS011;17168;49.164;9.060;2022-09-09T03:44:23;2.45;;;0.65;;
30378;SDS011;17168;49.164;9.060;2022-09-09T03:46:56;5.63;;;0.80;;
30378;SDS011;17168;49.164;9.060;2022-09-09T03:49:31;4.00;;;0.75;;
30378;SDS011;17168;49.164;9.060;2022-09-09T03:52:03;2.08;;;0.52;;
30378;SDS011;17168;49.164;9.060;2022-09-09T03:54:34;1.27;;;0.60;;
30378;SDS011;17168;49.164;9.060;2022-09-09T03:57:06;2.70;;;0.60;;
30378;SDS011;17168;49.164;9.060;2022-09-09T03:59:38;2.42;;;0.70;;
30378;SDS011;17168;49.164;9.060;2022-09-09T04:02:11;1.75;;;0.65;;
30378;SDS011;17168;49.164;9.060;2022-09-09T04:04:43;1.75;;;0.65;;
30378;SDS011;17168;49.164;9.060;2022-09-09T04:07:15;2.42;;;0.80;;
30378;SDS011;17168;49.164;9.060;2022-09-09T04:09:47;1.00;;;0.50;;
30378;SDS011;17168;49.164;9.060;2022-09-09T04:12:19;2.67;;;0.65;;
30378;SDS011;17168;49.164;9.060;2022-09-09T04:14:51;3.83;;;0.55;;
30378;SDS011;17168;49.164;9.060;2022-09-09T04:17:24;3.22;;;0.80;;
30378;SDS011;17168;49.164;9.060;2022-09-09T04:19:56;1.80;;;0.60;;
30378;SDS011;17168;49.164;9.060;2022-09-09T04:22:28;4.28;;;0.80;;
30378;SDS011;17168;49.164;9.060;2022-09-09T04:25:00;1.40;;;0.50;;
30378;SDS011;17168;49.164;9.060;2022-09-09T04:27:31;2.08;;;0.60;;
30378;SDS011;17168;49.164;9.060;2022-09-09T04:30:03;1.58;;;0.60;;
30378;SDS011;17168;49.164;9.060;2022-09-09T04:32:37;1.58;;;0.70;;
30378;SDS011;17168;49.164;9.060;2022-09-09T04:35:09;4.40;;;0.80;;
30378;SDS011;17168;49.164;9.060;2022-09-09T04:37:41;3.58;;;0.60;;
30378;SDS011;17168;49.164;9.060;2022-09-09T04:40:13;1.80;;;0.63;;
30378;SDS011;17168;49.164;9.060;2022-09-09T04:42:44;2.47;;;0.70;;
30378;SDS011;17168;49.164;9.060;2022-09-09T04:45:19;4.45;;;0.75;;
30378;SDS011;17168;49.164;9.060;2022-09-09T04:47:52;3.75;;;0.70;;
30378;SDS011;17168;49.164;9.060;2022-09-09T04:52:56;1.83;;;0.70;;
30378;SDS011;17168;49.164;9.060;2022-09-09T04:55:31;2.60;;;0.70;;
30378;SDS011;17168;49.164;9.060;2022-09-09T04:58:04;2.40;;;0.60;;
30378;SDS011;17168;49.164;9.060;2022-09-09T05:00:37;2.17;;;0.65;;
30378;SDS011;17168;49.164;9.060;2022-09-09T05:03:11;1.23;;;0.68;;
30378;SDS011;17168;49.164;9.060;2022-09-09T05:05:43;2.85;;;0.88;;
30378;SDS011;17168;49.164;9.060;2022-09-09T05:08:15;1.73;;;0.70;;
30378;SDS011;17168;49.164;9.060;2022-09-09T05:10:47;2.60;;;0.80;;
30378;SDS011;17168;49.164;9.060;2022-09-09T05:13:19;2.58;;;0.90;;
30378;SDS011;17168;49.164;9.060;2022-09-09T05:15:52;2.10;;;0.70;;
30378;SDS011;17168;49.164;9.060;2022-09-09T05:18:25;4.00;;;0.60;;
30378;SDS011;17168;49.164;9.060;2022-09-09T05:20:58;1.63;;;0.80;;
30378;SDS011;17168;49.164;9.060;2022-09-09T05:23:30;1.17;;;0.60;;
30378;SDS011;17168;49.164;9.060;2022-09-09T05:26:03;2.27;;;0.60;;
30378;SDS011;17168;49.164;9.060;2022-09-09T05:28:36;3.17;;;0.65;;
30378;SDS011;17168;49.164;9.060;2022-09-09T05:31:08;1.70;;;0.60;;
30378;SDS011;17168;49.164;9.060;2022-09-09T05:33:46;1.38;;;0.68;;
30378;SDS011;17168;49.164;9.060;2022-09-09T05:36:19;2.88;;;0.70;;
30378;SDS011;17168;49.164;9.060;2022-09-09T05:38:52;1.95;;;0.60;;
30378;SDS011;17168;49.164;9.060;2022-09-09T05:41:27;2.38;;;0.65;;
30378;SDS011;17168;49.164;9.060;2022-09-09T05:44:00;3.55;;;0.70;;
30378;SDS011;17168;49.164;9.060;2022-09-09T05:46:32;2.75;;;0.70;;
30378;SDS011;17168;49.164;9.060;2022-09-09T05:49:05;2.67;;;0.80;;
30378;SDS011;17168;49.164;9.060;2022-09-09T05:51:37;1.92;;;0.65;;
30378;SDS011;17168;49.164;9.060;2022-09-09T05:54:09;3.88;;;0.40;;
30378;SDS011;17168;49.164;9.060;2022-09-09T05:56:41;2.08;;;0.68;;
30378;SDS011;17168;49.164;9.060;2022-09-09T05:59:13;3.78;;;0.70;;
30378;SDS011;17168;49.164;9.060;2022-09-09T06:01:46;3.58;;;0.80;;
30378;SDS011;17168;49.164;9.060;2022-09-09T06:04:20;2.55;;;0.70;;
30378;SDS011;17168;49.164;9.060;2022-09-09T06:06:53;1.90;;;0.50;;
30378;SDS011;17168;49.164;9.060;2022-09-09T06:09:25;1.77;;;0.63;;
30378;SDS011;17168;49.164;9.060;2022-09-09T06:11:57;1.65;;;0.50;;
30378;SDS011;17168;49.164;9.060;2022-09-09T06:14:29;1.55;;;0.63;;
30378;SDS011;17168;49.164;9.060;2022-09-09T06:17:01;2.15;;;0.50;;
30378;SDS011;17168;49.164;9.060;2022-09-09T06:19:34;5.80;;;0.88;;
30378;SDS011;17168;49.164;9.060;2022-09-09T06:22:06;2.10;;;0.40;;
30378;SDS011;17168;49.164;9.060;2022-09-09T06:24:38;1.98;;;0.50;;
30378;SDS011;17168;49.164;9.060;2022-09-09T06:27:10;3.22;;;0.55;;
30378;SDS011;17168;49.164;9.060;2022-09-09T06:29:41;2.60;;;0.63;;
30378;SDS011;17168;49.164;9.060;2022-09-09T06:32:13;2.13;;;0.65;;
30378;SDS011;17168;49.164;9.060;2022-09-09T06:34:46;1.63;;;0.60;;
30378;SDS011;17168;49.164;9.060;2022-09-09T06:37:20;1.75;;;0.60;;
30378;SDS011;17168;49.164;9.060;2022-09-09T06:39:52;1.20;;;0.43;;
30378;SDS011;17168;49.164;9.060;2022-09-09T06:42:25;2.15;;;0.60;;
30378;SDS011;17168;49.164;9.060;2022-09-09T06:44:57;1.40;;;0.50;;
30378;SDS011;17168;49.164;9.060;2022-09-09T06:47:29;2.13;;;0.60;;
30378;SDS011;17168;49.164;9.060;2022-09-09T06:50:02;3.25;;;0.68;;
30378;SDS011;17168;49.164;9.060;2022-09-09T06:52:34;2.38;;;0.65;;
30378;SDS011;17168;49.164;9.060;2022-09-09T06:55:06;1.20;;;0.40;;
30378;SDS011;17168;49.164;9.060;2022-09-09T06:57:39;0.85;;;0.45;;
30378;SDS011;17168;49.164;9.060;2022-09-09T07:00:11;4.10;;;0.60;;
30378;SDS011;17168;49.164;9.060;2022-09-09T07:02:45;3.78;;;0.70;;
30378;SDS011;17168;49.164;9.060;2022-09-09T07:05:18;2.00;;;0.50;;
30378;SDS011;17168;49.164;9.060;2022-09-09T07:07:50;4.00;;;0.68;;
30378;SDS011;17168;49.164;9.060;2022-09-09T07:10:22;1.48;;;0.52;;
30378;SDS011;17168;49.164;9.060;2022-09-09T07:12:53;3.13;;;0.73;;
30378;SDS011;17168;49.164;9.060;2022-09-09T07:15:25;4.45;;;0.70;;
30378;SDS011;17168;49.164;9.060;2022-09-09T07:18:00;4.05;;;0.70;;
30378;SDS011;17168;49.164;9.060;2022-09-09T07:20:33;3.78;;;1.00;;
30378;SDS011;17168;49.164;9.060;2022-09-09T07:23:05;4.07;;;0.75;;
30378;SDS011;17168;49.164;9.060;2022-09-09T07:25:37;3.08;;;0.85;;
30378;SDS011;17168;49.164;9.060;2022-09-09T07:28:15;5.05;;;1.10;;
30378;SDS011;17168;49.164;9.060;2022-09-09T07:30:52;3.97;;;0.90;;
30378;SDS011;17168;49.164;9.060;2022-09-09T07:33:25;3.35;;;0.85;;
30378;SDS011;17168;49.164;9.060;2022-09-09T07:36:02;2.90;;;0.90;;
30378;SDS011;17168;49.164;9.060;2022-09-09T07:38:38;4.22;;;0.82;;
30378;SDS011;17168;49.164;9.060;2022-09-09T07:41:12;5.10;;;0.93;;
30378;SDS011;17168;49.164;9.060;2022-09-09T07:43:45;5.25;;;0.80;;
30378;SDS011;17168;49.164;9.060;2022-09-09T07:46:20;4.68;;;0.70;;
30378;SDS011;17168;49.164;9.060;2022-09-09T07:48:53;4.60;;;0.90;;
30378;SDS011;17168;49.164;9.060;2022-09-09T07:51:29;8.55;;;1.27;;
30378;SDS011;17168;49.164;9.060;2022-09-09T07:54:03;5.80;;;1.08;;
30378;SDS011;17168;49.164;9.060;2022-09-09T07:56:37;3.97;;;1.20;;
30378;SDS011;17168;49.164;9.060;2022-09-09T07:59:10;3.90;;;0.73;;
30378;SDS011;17168;49.164;9.060;2022-09-09T08:01:43;7.47;;;1.08;;
30378;SDS011;17168;49.164;9.060;2022-09-09T08:04:17;5.20;;;1.20;;
30378;SDS011;17168;49.164;9.060;2022-09-09T08:06:52;3.22;;;0.90;;
30378;SDS011;17168;49.164;9.060;2022-09-09T08:09:26;7.45;;;0.80;;
30378;SDS011;17168;49.164;9.060;2022-09-09T08:12:00;5.05;;;1.05;;
30378;SDS011;17168;49.164;9.060;2022-09-09T08:14:32;5.18;;;1.27;;
30378;SDS011;17168;49.164;9.060;2022-09-09T08:17:04;5.40;;;0.90;;
30378;SDS011;17168;49.164;9.060;2022-09-09T08:19:36;4.82;;;1.02;;
30378;SDS011;17168;49.164;9.060;2022-09-09T08:22:09;5.30;;;0.80;;
30378;SDS011;17168;49.164;9.060;2022-09-09T08:24:41;6.15;;;1.10;;
30378;SDS011;17168;49.164;9.060;2022-09-09T08:27:13;5.20;;;1.00;;
30378;SDS011;17168;49.164;9.060;2022-09-09T08:29:45;4.50;;;0.93;;
30378;SDS011;17168;49.164;9.060;2022-09-09T08:32:17;5.63;;;1.10;;
30378;SDS011;17168;49.164;9.060;2022-09-09T08:34:50;6.57;;;1.02;;
30378;SDS011;17168;49.164;9.060;2022-09-09T08:37:26;4.88;;;0.73;;
30378;SDS011;17168;49.164;9.060;2022-09-09T08:39:58;3.05;;;0.90;;
30378;SDS011;17168;49.164;9.060;2022-09-09T08:42:35;5.82;;;0.88;;
30378;SDS011;17168;49.164;9.060;2022-09-09T08:45:14;7.55;;;1.10;;
30378;SDS011;17168;49.164;9.060;2022-09-09T08:47:55;5.30;;;0.88;;
30378;SDS011;17168;49.164;9.060;2022-09-09T08:50:35;3.75;;;0.70;;
30378;SDS011;17168;49.164;9.060;2022-09-09T08:53:11;2.83;;;0.85;;
30378;SDS011;17168;49.164;9.060;2022-09-09T08:55:51;6.38;;;0.90;;
30378;SDS011;17168;49.164;9.060;2022-09-09T08:58:26;2.78;;;0.80;;
30378;SDS011;17168;49.164;9.060;2022-09-09T09:01:03;4.32;;;0.80;;
30378;SDS011;17168;49.164;9.060;2022-09-09T09:03:48;4.20;;;0.80;;
30378;SDS011;17168;49.164;9.060;2022-09-09T09:06:26;3.55;;;0.80;;
30378;SDS011;17168;49.164;9.060;2022-09-09T09:09:16;3.95;;;0.98;;
30378;SDS011;17168;49.164;9.060;2022-09-09T09:12:07;4.78;;;0.98;;
30378;SDS011;17168;49.164;9.060;2022-09-09T09:14:46;2.85;;;0.80;;
30378;SDS011;17168;49.164;9.060;2022-09-09T09:17:41;4.38;;;0.73;;
30378;SDS011;17168;49.164;9.060;2022-09-09T09:20:27;2.22;;;0.68;;
30378;SDS011;17168;49.164;9.060;2022-09-09T09:23:24;6.35;;;1.00;;
30378;SDS011;17168;49.164;9.060;2022-09-09T09:26:16;5.97;;;0.60;;
30378;SDS011;17168;49.164;9.060;2022-09-09T09:29:13;4.53;;;0.68;;
30378;SDS011;17168;49.164;9.060;2022-09-09T09:32:12;3.47;;;0.60;;
30378;SDS011;17168;49.164;9.060;2022-09-09T09:35:10;6.75;;;1.13;;
30378;SDS011;17168;49.164;9.060;2022-09-09T09:37:47;5.47;;;0.75;;
30378;SDS011;17168;49.164;9.060;2022-09-09T09:40:47;4.38;;;0.73;;
30378;SDS011;17168;49.164;9.060;2022-09-09T09:43:24;2.95;;;0.30;;
30378;SDS011;17168;49.164;9.060;2022-09-09T09:45:58;1.75;;;0.75;;
30378;SDS011;17168;49.164;9.060;2022-09-09T09:48:55;3.78;;;0.45;;
30378;SDS011;17168;49.164;9.060;2022-09-09T09:51:29;0.98;;;0.30;;
30378;SDS011;17168;49.164;9.060;2022-09-09T09:54:08;2.70;;;0.63;;
30378;SDS011;17168;49.164;9.060;2022-09-09T09:56:49;2.03;;;0.50;;
30378;SDS011;17168;49.164;9.060;2022-09-09T09:59:24;4.00;;;0.70;;
30378;SDS011;17168;49.164;9.060;2022-09-09T10:02:13;3.05;;;0.50;;
30378;SDS011;17168;49.164;9.060;2022-09-09T10:04:47;2.08;;;0.50;;
30378;SDS011;17168;49.164;9.060;2022-09-09T10:07:19;3.90;;;0.68;;
30378;SDS011;17168;49.164;9.060;2022-09-09T10:09:53;7.05;;;0.80;;
30378;SDS011;17168;49.164;9.060;2022-09-09T10:12:30;1.77;;;0.50;;
30378;SDS011;17168;49.164;9.060;2022-09-09T10:15:23;7.68;;;1.15;;
30378;SDS011;17168;49.164;9.060;2022-09-09T10:18:05;4.90;;;1.00;;
30378;SDS011;17168;49.164;9.060;2022-09-09T10:20:50;2.53;;;0.60;;
30378;SDS011;17168;49.164;9.060;2022-09-09T10:23:41;1.23;;;0.43;;
30378;SDS011;17168;49.164;9.060;2022-09-09T10:26:28;3.45;;;0.55;;
30378;SDS011;17168;49.164;9.060;2022-09-09T10:31:51;2.85;;;0.60;;
30378;SDS011;17168;49.164;9.060;2022-09-09T10:34:34;1.50;;;0.50;;
30378;SDS011;17168;49.164;9.060;2022-09-09T10:37:30;4.65;;;0.60;;
30378;SDS011;17168;49.164;9.060;2022-09-09T10:40:18;4.57;;;0.60;;
30378;SDS011;17168;49.164;9.060;2022-09-09T10:42:59;2.40;;;0.50;;
30378;SDS011;17168;49.164;9.060;2022-09-09T10:45:41;3.30;;;0.50;;
30378;SDS011;17168;49.164;9.060;2022-09-09T10:48:26;1.73;;;0.35;;
30378;SDS011;17168;49.164;9.060;2022-09-09T10:51:14;3.15;;;0.60;;
30378;SDS011;17168;49.164;9.060;2022-09-09T10:54:00;4.72;;;0.60;;
30378;SDS011;17168;49.164;9.060;2022-09-09T10:56:49;1.83;;;0.47;;
30378;SDS011;17168;49.164;9.060;2022-09-09T11:03:05;3.13;;;0.73;;
30378;SDS011;17168;49.164;9.060;2022-09-09T11:06:05;3.80;;;0.60;;
30378;SDS011;17168;49.164;9.060;2022-09-09T11:08:44;2.10;;;0.45;;
30378;SDS011;17168;49.164;9.060;2022-09-09T11:11:21;5.28;;;0.60;;
30378;SDS011;17168;49.164;9.060;2022-09-09T11:14:01;6.05;;;1.00;;
30378;SDS011;17168;49.164;9.060;2022-09-09T11:16:56;4.35;;;0.80;;
30378;SDS011;17168;49.164;9.060;2022-09-09T11:20:17;2.40;;;0.75;;
30378;SDS011;17168;49.164;9.060;2022-09-09T11:22:54;4.88;;;1.02;;
30378;SDS011;17168;49.164;9.060;2022-09-09T11:25:36;5.80;;;0.60;;
30378;SDS011;17168;49.164;9.060;2022-09-09T11:28:19;3.90;;;0.60;;
30378;SDS011;17168;49.164;9.060;2022-09-09T11:31:07;3.70;;;0.70;;
30378;SDS011;17168;49.164;9.060;2022-09-09T11:33:55;3.65;;;0.73;;
30378;SDS011;17168;49.164;9.060;2022-09-09T11:39:51;3.38;;;0.70;;
30378;SDS011;17168;49.164;9.060;2022-09-09T11:42:41;2.55;;;0.70;;
30378;SDS011;17168;49.164;9.060;2022-09-09T11:45:19;3.60;;;0.80;;
30378;SDS011;17168;49.164;9.060;2022-09-09T11:47:55;4.82;;;0.68;;
30378;SDS011;17168;49.164;9.060;2022-09-09T11:50:37;1.65;;;0.40;;
30378;SDS011;17168;49.164;9.060;2022-09-09T11:53:32;3.70;;;0.70;;
30378;SDS011;17168;49.164;9.060;2022-09-09T11:56:22;2.95;;;0.70;;
30378;SDS011;17168;49.164;9.060;2022-09-09T11:59:02;2.38;;;0.57;;
30378;SDS011;17168;49.164;9.060;2022-09-09T12:01:36;2.17;;;0.55;;
30378;SDS011;17168;49.164;9.060;2022-09-09T12:04:27;1.63;;;0.45;;
30378;SDS011;17168;49.164;9.060;2022-09-09T12:07:18;2.88;;;0.50;;
30378;SDS011;17168;49.164;9.060;2022-09-09T12:09:59;3.67;;;0.60;;
30378;SDS011;17168;49.164;9.060;2022-09-09T12:13:08;1.42;;;0.50;;
30378;SDS011;17168;49.164;9.060;2022-09-09T12:15:48;2.15;;;0.70;;
30378;SDS011;17168;49.164;9.060;2022-09-09T12:18:22;2.92;;;0.55;;
30378;SDS011;17168;49.164;9.060;2022-09-09T12:20:57;4.97;;;0.75;;
30378;SDS011;17168;49.164;9.060;2022-09-09T12:23:38;1.35;;;0.60;;
30378;SDS011;17168;49.164;9.060;2022-09-09T12:26:23;3.78;;;0.50;;
30378;SDS011;17168;49.164;9.060;2022-09-09T12:29:04;1.70;;;0.50;;
30378;SDS011;17168;49.164;9.060;2022-09-09T12:31:44;4.50;;;0.50;;
30378;SDS011;17168;49.164;9.060;2022-09-09T12:34:22;3.13;;;0.50;;
30378;SDS011;17168;49.164;9.060;2022-09-09T12:37:04;0.65;;;0.30;;
30378;SDS011;17168;49.164;9.060;2022-09-09T12:39:45;1.08;;;0.28;;
30378;SDS011;17168;49.164;9.060;2022-09-09T12:42:24;1.45;;;0.28;;
30378;SDS011;17168;49.164;9.060;2022-09-09T12:44:59;1.63;;;0.40;;
30378;SDS011;17168;49.164;9.060;2022-09-09T12:47:36;2.47;;;0.40;;
30378;SDS011;17168;49.164;9.060;2022-09-09T12:50:15;1.13;;;0.40;;
30378;SDS011;17168;49.164;9.060;2022-09-09T12:52:50;1.90;;;0.45;;
30378;SDS011;17168;49.164;9.060;2022-09-09T12:55:27;1.75;;;0.50;;
30378;SDS011;17168;49.164;9.060;2022-09-09T12:58:03;1.80;;;0.47;;
30378;SDS011;17168;49.164;9.060;2022-09-09T13:00:48;2.03;;;0.65;;
30378;SDS011;17168;49.164;9.060;2022-09-09T13:03:22;1.48;;;0.47;;
30378;SDS011;17168;49.164;9.060;2022-09-09T13:05:57;2.05;;;0.45;;
30378;SDS011;17168;49.164;9.060;2022-09-09T13:08:33;2.47;;;0.60;;
30378;SDS011;17168;49.164;9.060;2022-09-09T13:11:06;2.47;;;0.70;;
30378;SDS011;17168;49.164;9.060;2022-09-09T13:13:49;1.63;;;0.60;;
30378;SDS011;17168;49.164;9.060;2022-09-09T13:16:29;2.10;;;0.50;;
30378;SDS011;17168;49.164;9.060;2022-09-09T13:19:06;3.33;;;0.60;;
30378;SDS011;17168;49.164;9.060;2022-09-09T13:21:44;2.60;;;0.80;;
30378;SDS011;17168;49.164;9.060;2022-09-09T13:24:27;3.00;;;0.70;;
30378;SDS011;17168;49.164;9.060;2022-09-09T13:27:03;2.92;;;0.73;;
30378;SDS011;17168;49.164;9.060;2022-09-09T13:29:51;2.85;;;0.75;;
30378;SDS011;17168;49.164;9.060;2022-09-09T13:32:28;2.55;;;0.60;;
30378;SDS011;17168;49.164;9.060;2022-09-09T13:35:03;2.78;;;0.60;;
30378;SDS011;17168;49.164;9.060;2022-09-09T13:37:36;3.13;;;0.57;;
30378;SDS011;17168;49.164;9.060;2022-09-09T13:40:12;3.33;;;0.60;;
30378;SDS011;17168;49.164;9.060;2022-09-09T13:42:51;2.92;;;0.50;;
30378;SDS011;17168;49.164;9.060;2022-09-09T13:45:25;4.38;;;0.70;;
30378;SDS011;17168;49.164;9.060;2022-09-09T13:47:59;2.72;;;0.70;;
30378;SDS011;17168;49.164;9.060;2022-09-09T13:50:40;4.72;;;0.80;;
30378;SDS011;17168;49.164;9.060;2022-09-09T13:53:12;2.90;;;0.77;;
30378;SDS011;17168;49.164;9.060;2022-09-09T13:55:44;9.07;;;0.75;;
30378;SDS011;17168;49.164;9.060;2022-09-09T13:58:23;3.72;;;0.90;;
30378;SDS011;17168;49.164;9.060;2022-09-09T14:00:56;5.85;;;1.10;;
30378;SDS011;17168;49.164;9.060;2022-09-09T14:03:29;2.90;;;0.80;;
30378;SDS011;17168;49.164;9.060;2022-09-09T14:06:01;3.35;;;0.77;;
30378;SDS011;17168;49.164;9.060;2022-09-09T14:08:33;3.40;;;0.77;;
30378;SDS011;17168;49.164;9.060;2022-09-09T14:11:08;2.90;;;0.70;;
30378;SDS011;17168;49.164;9.060;2022-09-09T14:13:43;1.85;;;0.60;;
30378;SDS011;17168;49.164;9.060;2022-09-09T14:16:15;2.15;;;0.50;;
30378;SDS011;17168;49.164;9.060;2022-09-09T14:18:49;3.05;;;0.68;;
30378;SDS011;17168;49.164;9.060;2022-09-09T14:21:21;4.25;;;0.60;;
30378;SDS011;17168;49.164;9.060;2022-09-09T14:23:53;3.33;;;0.70;;
30378;SDS011;17168;49.164;9.060;2022-09-09T14:26:25;3.07;;;0.80;;
30378;SDS011;17168;49.164;9.060;2022-09-09T14:28:57;2.75;;;0.50;;
30378;SDS011;17168;49.164;9.060;2022-09-09T14:31:30;1.73;;;0.60;;
30378;SDS011;17168;49.164;9.060;2022-09-09T14:34:03;1.30;;;0.50;;
30378;SDS011;17168;49.164;9.060;2022-09-09T14:39:06;2.80;;;0.70;;
30378;SDS011;17168;49.164;9.060;2022-09-09T14:41:38;1.77;;;0.63;;
30378;SDS011;17168;49.164;9.060;2022-09-09T14:44:10;3.40;;;0.68;;
30378;SDS011;17168;49.164;9.060;2022-09-09T14:46:41;4.00;;;0.80;;
30378;SDS011;17168;49.164;9.060;2022-09-09T14:49:15;0.95;;;0.47;;
30378;SDS011;17168;49.164;9.060;2022-09-09T14:51:47;3.88;;;0.90;;
30378;SDS011;17168;49.164;9.060;2022-09-09T14:54:19;3.60;;;0.60;;
30378;SDS011;17168;49.164;9.060;2022-09-09T14:56:52;1.60;;;0.70;;
30378;SDS011;17168;49.164;9.060;2022-09-09T14:59:24;2.15;;;0.60;;
30378;SDS011;17168;49.164;9.060;2022-09-09T15:01:55;4.18;;;0.70;;
30378;SDS011;17168;49.164;9.060;2022-09-09T15:04:29;3.63;;;0.70;;
30378;SDS011;17168;49.164;9.060;2022-09-09T15:09:32;2.45;;;0.70;;
30378;SDS011;17168;49.164;9.060;2022-09-09T15:12:04;3.42;;;0.60;;
30378;SDS011;17168;49.164;9.060;2022-09-09T15:14:36;2.67;;;0.70;;
30378;SDS011;17168;49.164;9.060;2022-09-09T15:17:09;2.95;;;0.70;;
30378;SDS011;17168;49.164;9.060;2022-09-09T15:19:42;2.60;;;0.70;;
30378;SDS011;17168;49.164;9.060;2022-09-09T15:22:14;2.95;;;0.68;;
30378;SDS011;17168;49.164;9.060;2022-09-09T15:24:46;2.05;;;0.60;;
30378;SDS011;17168;49.164;9.060;2022-09-09T15:27:18;2.83;;;0.60;;
30378;SDS011;17168;49.164;9.060;2022-09-09T15:29:50;1.70;;;0.60;;
30378;SDS011;17168;49.164;9.060;2022-09-09T15:32:22;2.40;;;0.60;;
30378;SDS011;17168;49.164;9.060;2022-09-09T15:34:55;4.65;;;0.70;;
30378;SDS011;17168;49.164;9.060;2022-09-09T15:37:27;3.65;;;0.80;;
30378;SDS011;17168;49.164;9.060;2022-09-09T15:39:59;2.60;;;0.70;;
30378;SDS011;17168;49.164;9.060;2022-09-09T15:42:32;3.00;;;0.60;;
30378;SDS011;17168;49.164;9.060;2022-09-09T15:45:04;2.70;;;0.70;;
30378;SDS011;17168;49.164;9.060;2022-09-09T15:50:10;2.60;;;0.60;;
30378;SDS011;17168;49.164;9.060;2022-09-09T15:52:41;2.35;;;0.75;;
30378;SDS011;17168;49.164;9.060;2022-09-09T15:55:13;2.50;;;0.80;;
30378;SDS011;17168;49.164;9.060;2022-09-09T15:57:45;2.33;;;0.60;;
30378;SDS011;17168;49.164;9.060;2022-09-09T16:00:17;2.45;;;0.70;;
30378;SDS011;17168;49.164;9.060;2022-09-09T16:02:50;4.00;;;0.90;;
30378;SDS011;17168;49.164;9.060;2022-09-09T16:05:23;2.47;;;0.57;;
30378;SDS011;17168;49.164;9.060;2022-09-09T16:07:55;2.20;;;0.55;;
30378;SDS011;17168;49.164;9.060;2022-09-09T16:10:26;1.40;;;0.40;;
30378;SDS011;17168;49.164;9.060;2022-09-09T16:12:58;1.67;;;0.50;;
30378;SDS011;17168;49.164;9.060;2022-09-09T16:15:30;1.55;;;0.43;;